Time;durP1;ratioP1;P1;durP2;ratioP2;P2;SDS_P1;SDS_P2;PMS_P1;PMS_P2;Temp;Humidity;BMP_temperature;BMP_pressure;BME280_temperature;BME280_humidity;BME280_pressure;Samples;Min_cycle;Max_cycle;Signal;HPM_P1;HPM_P2
2023/12/23 00:01:18;;;;;;;6.10;5.70;;;10.00;33.00;;;;;;5113403;28;20201;-54
2023/12/23 00:03:45;;;;;;;6.40;6.10;;;10.00;34.00;;;;;;5113691;28;20178;-55
2023/12/23 00:06:10;;;;;;;6.17;5.70;;;9.90;35.30;;;;;;5113585;28;20166;-55
2023/12/23 00:08:36;;;;;;;5.27;4.97;;;9.80;36.00;;;;;;5113258;28;20919;-56
2023/12/23 00:11:02;;;;;;;5.70;5.27;;;9.80;36.40;;;;;;5113289;28;20177;-54
2023/12/23 00:13:27;;;;;;;4.77;4.57;;;9.90;35.40;;;;;;5113410;28;20174;-56
2023/12/23 00:15:53;;;;;;;4.47;4.27;;;9.90;35.50;;;;;;5113350;28;20207;-54
2023/12/23 00:18:19;;;;;;;5.50;5.20;;;9.80;34.80;;;;;;5113051;28;20741;-56
2023/12/23 00:20:44;;;;;;;5.80;5.30;;;9.80;35.00;;;;;;5113136;28;20209;-55
2023/12/23 00:23:12;;;;;;;5.30;5.00;;;9.90;35.10;;;;;;5113068;28;20166;-56
2023/12/23 00:25:37;;;;;;;4.73;4.50;;;9.80;34.50;;;;;;5113172;28;20230;-54
2023/12/23 00:28:03;;;;;;;5.70;4.77;;;9.80;34.30;;;;;;5112736;28;20999;-55
2023/12/23 00:30:29;;;;;;;5.77;5.37;;;9.90;33.90;;;;;;5114229;28;20518;-56
2023/12/23 00:32:55;;;;;;;5.77;5.27;;;9.90;34.90;;;;;;5113005;28;20465;-56
2023/12/23 00:35:20;;;;;;;5.97;5.67;;;9.90;34.60;;;;;;5112971;28;20181;-57
2023/12/23 00:37:46;;;;;;;6.20;5.60;;;10.00;33.10;;;;;;5112977;28;20179;-56
2023/12/23 00:40:12;;;;;;;5.83;5.50;;;9.90;34.50;;;;;;5112373;28;21266;-56
2023/12/23 00:42:37;;;;;;;6.00;5.50;;;9.90;36.20;;;;;;5112842;28;20228;-54
2023/12/23 00:45:04;;;;;;;5.50;5.20;;;9.80;36.90;;;;;;5112746;28;20403;-56
2023/12/23 00:47:30;;;;;;;5.90;5.47;;;9.70;37.40;;;;;;5112759;28;20253;-54
2023/12/23 00:49:55;;;;;;;9.03;6.20;;;9.60;38.20;;;;;;5112373;28;20503;-54
2023/12/23 00:52:21;;;;;;;5.67;5.17;;;9.60;39.40;;;;;;5112339;28;20711;-54
2023/12/23 00:54:47;;;;;;;5.20;4.90;;;9.60;38.70;;;;;;5112612;28;20178;-54
2023/12/23 00:57:12;;;;;;;5.03;4.83;;;9.60;39.30;;;;;;5112556;28;20181;-54
2023/12/23 00:59:38;;;;;;;5.53;5.13;;;9.60;38.40;;;;;;5112099;28;20626;-55
2023/12/23 01:02:04;;;;;;;5.40;5.10;;;9.50;38.00;;;;;;5112237;28;20182;-54
2023/12/23 01:04:29;;;;;;;5.33;5.03;;;9.60;38.00;;;;;;5112668;28;20540;-54
2023/12/23 01:06:55;;;;;;;4.60;4.40;;;9.60;37.30;;;;;;5112370;28;20207;-54
2023/12/23 01:09:20;;;;;;;6.13;5.73;;;9.60;37.60;;;;;;5111931;28;20169;-54
2023/12/23 01:11:46;;;;;;;5.60;5.30;;;9.60;37.50;;;;;;5112303;28;20194;-54
2023/12/23 01:14:12;;;;;;;5.30;5.07;;;9.50;37.10;;;;;;5112267;28;20178;-56
2023/12/23 01:16:37;;;;;;;5.67;5.40;;;9.60;36.30;;;;;;5112265;28;20193;-54
2023/12/23 01:19:03;;;;;;;6.10;5.60;;;9.60;36.40;;;;;;5111700;28;20177;-56
2023/12/23 01:21:29;;;;;;;5.80;5.30;;;9.60;35.90;;;;;;5112015;28;20293;-52
2023/12/23 01:23:54;;;;;;;6.20;5.90;;;9.60;36.10;;;;;;5111964;28;20177;-51
2023/12/23 01:26:20;;;;;;;5.93;5.40;;;9.60;35.60;;;;;;5112004;28;20178;-55
2023/12/23 01:28:46;;;;;;;5.37;5.07;;;9.60;36.20;;;;;;5111797;28;20170;-50
2023/12/23 01:31:11;;;;;;;6.60;5.97;;;9.70;36.50;;;;;;5111887;28;20181;-53
2023/12/23 01:33:37;;;;;;;6.20;5.90;;;9.60;35.90;;;;;;5111971;28;20185;-53
2023/12/23 01:36:05;;;;;;;6.30;5.97;;;9.60;36.50;;;;;;5094799;28;20181;-55
2023/12/23 01:38:34;;;;;;;5.27;5.07;;;9.60;37.30;;;;;;5111402;28;20170;-54
2023/12/23 01:40:59;;;;;;;5.57;5.27;;;9.70;37.40;;;;;;5111597;28;20488;-54
2023/12/23 01:43:25;;;;;;;4.73;4.57;;;9.70;37.70;;;;;;5111745;28;20915;-55
2023/12/23 01:45:56;;;;;;;5.80;5.60;;;9.60;38.60;;;;;;5111681;28;20178;-54
2023/12/23 01:48:22;;;;;;;5.33;5.10;;;9.50;38.50;;;;;;5111350;28;20511;-55
2023/12/23 01:50:49;;;;;;;5.10;4.80;;;9.50;38.50;;;;;;5111804;28;20426;-55
2023/12/23 01:53:16;;;;;;;5.77;5.47;;;9.60;38.20;;;;;;5111419;28;20407;-53
2023/12/23 01:55:42;;;;;;;5.70;5.50;;;9.60;37.80;;;;;;5111614;28;20470;-55
2023/12/23 01:58:08;;;;;;;6.30;5.90;;;9.70;37.10;;;;;;5111007;28;20424;-54
2023/12/23 02:00:34;;;;;;;5.90;5.53;;;9.80;36.90;;;;;;5111461;28;20501;-55
2023/12/23 02:02:59;;;;;;;6.87;6.37;;;9.70;36.30;;;;;;5110793;28;20641;-55
2023/12/23 02:05:25;;;;;;;6.20;5.70;;;9.60;36.70;;;;;;5111295;28;20694;-55
2023/12/23 02:07:52;;;;;;;6.67;6.20;;;9.60;36.80;;;;;;5111337;28;20208;-54
2023/12/23 02:10:18;;;;;;;6.50;6.07;;;9.70;36.80;;;;;;5112143;28;20524;-53
2023/12/23 02:13:08;;;;;;;7.43;6.80;;;9.90;35.00;;;;;;5111295;28;20912;-53
2023/12/23 02:15:36;;;;;;;6.00;5.70;;;9.80;35.10;;;;;;5111352;28;20469;-54
2023/12/23 02:18:02;;;;;;;7.40;6.73;;;9.70;35.30;;;;;;5110801;28;20408;-52
2023/12/23 02:20:28;;;;;;;7.43;7.00;;;9.60;36.10;;;;;;5111007;28;20872;-53
2023/12/23 02:22:54;;;;;;;7.10;6.50;;;9.60;36.90;;;;;;5111087;28;20214;-50
2023/12/23 02:25:22;;;;;;;6.20;5.90;;;9.60;36.60;;;;;;5111091;28;20408;-51
2023/12/23 02:27:52;;;;;;;6.50;6.10;;;9.50;37.00;;;;;;5111201;28;20494;-56
2023/12/23 02:30:20;;;;;;;6.13;5.83;;;9.60;36.20;;;;;;5110728;28;20427;-55
2023/12/23 02:32:46;;;;;;;5.87;5.60;;;9.60;36.90;;;;;;5111043;28;20451;-56
2023/12/23 02:35:12;;;;;;;6.10;5.70;;;9.60;37.50;;;;;;5112273;28;20408;-55
2023/12/23 02:37:38;;;;;;;5.97;5.67;;;9.50;37.40;;;;;;5111035;28;20416;-54
2023/12/23 02:40:04;;;;;;;6.40;6.10;;;9.50;38.00;;;;;;5110565;28;20540;-54
2023/12/23 02:42:30;;;;;;;5.70;5.40;;;9.50;38.50;;;;;;5111039;28;20404;-54
2023/12/23 02:44:56;;;;;;;6.10;5.60;;;9.50;38.30;;;;;;5111017;28;20408;-53
2023/12/23 02:47:21;;;;;;;6.30;5.90;;;9.60;37.60;;;;;;5110931;28;20199;-55
2023/12/23 02:49:47;;;;;;;6.30;6.00;;;9.50;37.60;;;;;;5110626;28;20539;-54
2023/12/23 02:52:12;;;;;;;5.90;5.60;;;9.40;37.50;;;;;;5110841;28;20628;-51
2023/12/23 02:54:38;;;;;;;5.30;5.10;;;9.50;37.50;;;;;;5111031;28;20182;-49
2023/12/23 02:57:04;;;;;;;5.60;5.40;;;9.50;37.20;;;;;;5110870;28;20269;-53
2023/12/23 02:59:29;;;;;;;5.80;5.40;;;9.50;36.60;;;;;;5110623;28;20277;-50
2023/12/23 03:01:55;;;;;;;6.17;5.67;;;9.50;37.20;;;;;;5110831;28;20199;-52
2023/12/23 03:04:21;;;;;;;6.80;5.70;;;9.50;37.20;;;;;;5110749;28;20531;-56
2023/12/23 03:06:46;;;;;;;6.40;6.10;;;9.50;35.70;;;;;;5112155;28;20250;-56
2023/12/23 03:09:12;;;;;;;7.00;6.50;;;9.60;35.90;;;;;;5092587;28;20540;-56
2023/12/23 03:11:38;;;;;;;6.10;5.80;;;9.60;35.10;;;;;;5110720;28;20609;-54
2023/12/23 03:14:04;;;;;;;6.53;6.20;;;9.60;35.40;;;;;;5112188;28;20537;-54
2023/12/23 03:16:34;;;;;;;7.47;6.57;;;9.50;35.30;;;;;;5114875;28;20205;-55
2023/12/23 03:19:03;;;;;;;7.43;6.83;;;9.40;35.00;;;;;;5114576;28;20423;-49
2023/12/23 03:21:29;;;;;;;6.70;6.27;;;9.40;35.10;;;;;;5114324;28;20995;-56
2023/12/23 03:23:55;;;;;;;6.33;5.97;;;9.50;35.40;;;;;;5114571;28;20403;-54
2023/12/23 03:26:21;;;;;;;7.47;6.87;;;9.40;35.40;;;;;;5114385;28;21029;-56
2023/12/23 03:28:46;;;;;;;6.67;6.20;;;9.40;35.30;;;;;;5113977;28;20181;-55
2023/12/23 03:31:12;;;;;;;7.30;6.80;;;9.40;34.50;;;;;;5114293;28;20178;-54
2023/12/23 03:33:39;;;;;;;6.53;6.17;;;9.50;35.10;;;;;;5114417;28;20584;-54
2023/12/23 03:36:05;;;;;;;7.43;7.00;;;9.50;34.80;;;;;;5114239;28;20176;-54
2023/12/23 03:38:31;;;;;;;6.57;6.27;;;9.60;34.50;;;;;;5096879;28;20496;-53
2023/12/23 03:40:57;;;;;;;6.70;6.40;;;9.60;34.20;;;;;;5114014;28;20550;-53
2023/12/23 03:43:22;;;;;;;7.43;6.70;;;9.60;34.20;;;;;;5113961;28;20257;-50
2023/12/23 03:45:48;;;;;;;7.20;6.70;;;9.60;34.60;;;;;;5114167;28;20170;-51
2023/12/23 03:48:14;;;;;;;6.67;6.27;;;9.50;34.00;;;;;;5113580;28;20178;-51
2023/12/23 03:50:40;;;;;;;6.33;6.03;;;9.50;33.70;;;;;;5113815;28;20180;-51
2023/12/23 03:53:05;;;;;;;6.87;6.20;;;9.50;34.30;;;;;;5113805;28;20919;-52
2023/12/23 03:55:34;;;;;;;6.70;6.30;;;9.60;34.40;;;;;;5115060;28;20177;-51
2023/12/23 03:58:00;;;;;;;7.10;6.60;;;9.50;33.60;;;;;;5113731;28;20217;-52
2023/12/23 04:00:26;;;;;;;7.47;6.87;;;9.60;33.60;;;;;;5113285;28;20471;-50
2023/12/23 04:02:52;;;;;;;6.57;6.17;;;9.60;34.20;;;;;;5113693;28;20554;-55
2023/12/23 04:05:18;;;;;;;6.40;6.10;;;9.50;33.80;;;;;;5113533;28;20445;-56
2023/12/23 04:07:49;;;;;;;6.27;6.07;;;9.50;33.30;;;;;;5113647;28;20487;-56
2023/12/23 04:10:16;;;;;;;6.77;6.37;;;9.50;34.00;;;;;;5113181;28;20200;-56
2023/12/23 04:12:41;;;;;;;6.90;6.40;;;9.50;33.80;;;;;;5113442;28;20408;-56
2023/12/23 04:15:07;;;;;;;6.40;6.10;;;9.60;34.30;;;;;;5113499;28;20494;-51
2023/12/23 04:17:34;;;;;;;6.20;6.00;;;9.60;33.50;;;;;;5114660;28;21223;-54
2023/12/23 04:20:00;;;;;;;6.57;6.30;;;9.70;33.30;;;;;;5113001;28;20475;-52
2023/12/23 04:22:25;;;;;;;6.50;6.10;;;9.70;33.20;;;;;;5113125;28;20432;-53
2023/12/23 04:24:51;;;;;;;7.10;6.60;;;9.80;32.80;;;;;;5113234;28;20180;-51
2023/12/23 04:27:17;;;;;;;6.87;6.57;;;9.80;32.30;;;;;;5112581;28;20177;-52
2023/12/23 04:29:43;;;;;;;6.77;6.47;;;9.80;32.30;;;;;;5114119;28;20169;-54
2023/12/23 04:32:09;;;;;;;6.10;5.80;;;9.80;32.10;;;;;;5112989;28;20411;-54
2023/12/23 04:34:37;;;;;;;6.77;6.40;;;9.80;31.90;;;;;;5112823;28;20758;-53
2023/12/23 04:37:03;;;;;;;6.53;6.27;;;9.80;32.30;;;;;;5113089;28;20705;-54
2023/12/23 04:39:28;;;;;;;6.70;6.37;;;9.80;32.00;;;;;;5112552;28;20490;-52
2023/12/23 04:41:54;;;;;;;6.83;6.40;;;9.80;31.20;;;;;;5112822;28;20467;-54
2023/12/23 04:44:20;;;;;;;6.20;5.90;;;9.80;31.10;;;;;;5112924;28;20198;-52
2023/12/23 04:46:47;;;;;;;7.00;6.70;;;9.80;30.00;;;;;;5113040;28;20269;-52
2023/12/23 04:49:13;;;;;;;6.47;6.17;;;9.80;30.70;;;;;;5112440;28;20908;-53
2023/12/23 04:51:38;;;;;;;6.20;6.00;;;9.70;30.40;;;;;;5112549;28;20416;-52
2023/12/23 04:54:04;;;;;;;5.80;5.50;;;9.70;29.90;;;;;;5112681;28;20182;-49
2023/12/23 04:56:30;;;;;;;6.80;6.40;;;9.80;29.80;;;;;;5112598;28;20241;-53
2023/12/23 04:58:56;;;;;;;6.07;5.67;;;9.80;29.60;;;;;;5112094;28;20253;-52
2023/12/23 05:01:22;;;;;;;6.20;5.90;;;9.90;28.70;;;;;;5112260;28;20228;-51
2023/12/23 05:03:48;;;;;;;6.10;5.90;;;9.90;28.70;;;;;;5112461;28;20533;-51
2023/12/23 05:06:14;;;;;;;6.10;5.90;;;9.90;28.50;;;;;;5095390;28;20995;-52
2023/12/23 05:08:39;;;;;;;6.20;5.90;;;10.00;27.90;;;;;;5111930;28;20215;-54
2023/12/23 05:11:05;;;;;;;6.33;5.93;;;9.90;28.30;;;;;;5099424;28;20178;-54
2023/12/23 05:13:30;;;;;;;6.20;6.00;;;10.00;27.60;;;;;;5095235;28;20170;-50
2023/12/23 05:15:56;;;;;;;6.70;6.37;;;9.90;28.10;;;;;;5095388;28;20748;-46
2023/12/23 05:18:22;;;;;;;6.00;5.70;;;9.90;28.60;;;;;;5095026;28;20178;-50
2023/12/23 05:20:47;;;;;;;6.07;5.77;;;10.00;27.90;;;;;;5094468;28;20577;-54
2023/12/23 05:23:13;;;;;;;5.47;5.30;;;9.90;28.60;;;;;;5093890;28;20253;-51
2023/12/23 05:25:38;;;;;;;6.07;5.77;;;9.90;29.00;;;;;;5094560;28;20177;-52
2023/12/23 05:28:05;;;;;;;6.00;5.80;;;10.00;27.80;;;;;;5094900;28;20170;-51
2023/12/23 05:30:31;;;;;;;5.73;5.53;;;9.90;29.80;;;;;;5094806;28;20208;-52
2023/12/23 05:32:57;;;;;;;5.43;5.30;;;9.80;30.00;;;;;;5094962;28;20420;-51
2023/12/23 05:35:22;;;;;;;5.83;5.63;;;9.90;29.40;;;;;;5110018;28;20182;-54
2023/12/23 05:37:48;;;;;;;5.63;5.43;;;9.90;29.70;;;;;;5093801;28;20272;-54
2023/12/23 05:40:13;;;;;;;6.90;6.60;;;9.80;30.20;;;;;;5093983;28;20548;-51
2023/12/23 05:42:39;;;;;;;5.93;5.73;;;9.80;31.10;;;;;;5094620;28;20180;-56
2023/12/23 05:45:05;;;;;;;5.73;5.53;;;9.80;30.80;;;;;;5094789;28;20166;-49
2023/12/23 05:47:30;;;;;;;6.07;5.87;;;9.90;30.60;;;;;;5094478;28;20244;-51
2023/12/23 05:49:57;;;;;;;5.37;5.27;;;9.80;30.80;;;;;;5094334;28;20501;-51
2023/12/23 05:52:22;;;;;;;5.40;5.10;;;9.80;30.70;;;;;;5094314;28;20172;-50
2023/12/23 05:54:49;;;;;;;5.40;5.30;;;9.80;30.80;;;;;;5098443;28;20412;-50
2023/12/23 05:57:15;;;;;;;5.67;5.57;;;9.70;31.90;;;;;;5094417;28;20185;-51
2023/12/23 05:59:41;;;;;;;5.80;5.50;;;9.70;32.20;;;;;;5094054;28;20435;-53
2023/12/23 06:02:07;;;;;;;5.17;5.07;;;9.70;32.20;;;;;;5094705;28;21092;-50
2023/12/23 06:04:33;;;;;;;5.30;5.10;;;9.60;33.40;;;;;;5094795;28;20408;-48
2023/12/23 06:06:59;;;;;;;5.50;5.40;;;9.50;34.30;;;;;;5094856;28;20502;-46
2023/12/23 06:09:25;;;;;;;5.20;5.00;;;9.50;35.20;;;;;;5094284;28;20396;-48
2023/12/23 06:11:51;;;;;;;5.57;5.47;;;9.40;35.80;;;;;;5094462;28;20923;-48
2023/12/23 06:14:16;;;;;;;5.30;5.20;;;9.40;35.40;;;;;;5094316;28;20447;-48
2023/12/23 06:16:42;;;;;;;5.77;5.67;;;9.40;36.10;;;;;;5094584;28;20190;-49
2023/12/23 06:19:08;;;;;;;5.33;5.23;;;9.40;36.00;;;;;;5091032;28;20229;-48
2023/12/23 06:21:34;;;;;;;5.33;5.23;;;9.50;35.70;;;;;;5093378;28;20214;-49
2023/12/23 06:24:00;;;;;;;5.67;5.57;;;9.50;35.80;;;;;;5094595;28;20412;-53
2023/12/23 06:26:26;;;;;;;5.50;5.40;;;9.40;36.30;;;;;;5094546;28;20908;-55
2023/12/23 06:28:51;;;;;;;5.27;5.17;;;9.30;36.10;;;;;;5094066;28;20668;-52
2023/12/23 06:31:17;;;;;;;5.33;5.13;;;9.30;37.20;;;;;;5094015;28;20196;-47
2023/12/23 06:33:43;;;;;;;5.30;5.20;;;9.30;36.50;;;;;;5094145;28;20415;-51
2023/12/23 06:36:09;;;;;;;5.60;5.50;;;9.30;36.80;;;;;;5094192;28;20524;-50
2023/12/23 06:38:35;;;;;;;6.10;5.90;;;9.40;36.20;;;;;;5093734;28;20185;-47
2023/12/23 06:41:02;;;;;;;5.90;5.70;;;9.50;35.80;;;;;;5112245;28;20459;-51
2023/12/23 06:43:29;;;;;;;6.13;5.93;;;9.50;36.10;;;;;;5093895;28;20407;-49
2023/12/23 06:45:54;;;;;;;5.80;5.60;;;9.50;35.60;;;;;;5094013;28;20424;-50
2023/12/23 06:48:20;;;;;;;6.33;6.13;;;9.40;35.10;;;;;;5093601;28;20422;-48
2023/12/23 06:50:46;;;;;;;5.97;5.67;;;9.30;35.90;;;;;;5097849;28;20192;-51
2023/12/23 06:53:12;;;;;;;6.30;6.20;;;9.40;36.00;;;;;;5098236;28;20177;-51
2023/12/23 06:55:37;;;;;;;5.33;5.23;;;9.30;36.70;;;;;;5098014;28;20186;-49
2023/12/23 06:58:03;;;;;;;5.40;5.20;;;9.30;36.70;;;;;;5097470;28;20438;-49
2023/12/23 07:00:29;;;;;;;5.10;5.00;;;9.30;37.20;;;;;;5097574;28;20201;-54
2023/12/23 07:02:54;;;;;;;5.43;5.27;;;9.20;37.20;;;;;;5097949;28;20271;-49
2023/12/23 07:05:20;;;;;;;5.40;5.20;;;9.20;37.30;;;;;;5115934;28;20607;-53
2023/12/23 07:07:46;;;;;;;5.53;5.43;;;9.20;37.70;;;;;;5097791;28;20178;-48
2023/12/23 07:10:13;;;;;;;5.70;5.50;;;9.20;37.10;;;;;;5097313;28;20415;-50
2023/12/23 07:12:40;;;;;;;5.77;5.67;;;9.30;37.00;;;;;;5097445;28;20628;-53
2023/12/23 07:15:06;;;;;;;5.27;5.13;;;9.30;36.60;;;;;;5097509;28;20426;-52
2023/12/23 07:17:33;;;;;;;5.53;5.33;;;9.40;36.80;;;;;;5097387;28;20423;-62
2023/12/23 07:19:58;;;;;;;5.77;5.57;;;9.40;36.20;;;;;;5097105;28;20419;-54
2023/12/23 07:22:24;;;;;;;5.70;5.50;;;9.50;36.30;;;;;;5097227;28;20423;-53
2023/12/23 07:24:49;;;;;;;6.23;6.03;;;9.50;36.30;;;;;;5097473;28;20264;-53
2023/12/23 07:27:15;;;;;;;5.97;5.77;;;9.40;36.20;;;;;;5097415;28;20178;-49
2023/12/23 07:29:41;;;;;;;6.93;6.73;;;9.40;36.50;;;;;;5096757;28;20200;-58
2023/12/23 07:32:07;;;;;;;6.30;6.10;;;9.30;37.30;;;;;;5097152;28;20255;-57
2023/12/23 07:34:33;;;;;;;7.60;7.40;;;9.30;37.20;;;;;;5082550;28;20213;-59
2023/12/23 07:36:59;;;;;;;5.80;5.60;;;9.20;37.40;;;;;;5077210;28;20420;-59
2023/12/23 07:39:24;;;;;;;5.83;5.63;;;9.30;37.00;;;;;;5076469;28;20182;-59
2023/12/23 07:41:50;;;;;;;5.93;5.83;;;9.30;36.10;;;;;;5076845;28;20662;-59
2023/12/23 07:44:16;;;;;;;6.50;6.40;;;9.40;35.80;;;;;;5077044;28;20175;-60
2023/12/23 07:46:42;;;;;;;5.97;5.87;;;9.40;35.20;;;;;;5076962;28;20182;-53
2023/12/23 07:49:07;;;;;;;6.73;6.43;;;9.30;34.40;;;;;;5076296;28;20231;-52
2023/12/23 07:51:33;;;;;;;6.17;5.97;;;9.40;34.60;;;;;;5076632;28;20456;-54
2023/12/23 07:53:59;;;;;;;6.20;6.00;;;9.40;34.00;;;;;;5076687;28;20205;-49
2023/12/23 07:56:25;;;;;;;5.37;5.27;;;9.40;34.50;;;;;;5076417;28;20200;-51
2023/12/23 07:58:51;;;;;;;6.90;6.60;;;9.40;34.50;;;;;;5075988;28;20222;-52
2023/12/23 08:01:16;;;;;;;6.10;5.90;;;9.50;34.10;;;;;;5091459;28;20967;-53
2023/12/23 08:03:42;;;;;;;6.30;6.10;;;9.50;33.70;;;;;;5096223;28;20723;-53
2023/12/23 08:06:08;;;;;;;7.23;7.03;;;9.40;33.90;;;;;;5096330;28;20547;-54
2023/12/23 08:08:33;;;;;;;6.63;6.43;;;9.40;33.60;;;;;;5095683;28;20187;-52
2023/12/23 08:10:59;;;;;;;6.70;6.50;;;9.50;33.90;;;;;;5096748;28;20180;-54
2023/12/23 08:13:26;;;;;;;6.23;6.03;;;9.50;33.70;;;;;;5096075;28;20182;-54
2023/12/23 08:15:52;;;;;;;6.30;6.20;;;9.50;34.20;;;;;;5102332;28;20264;-55
2023/12/23 08:18:17;;;;;;;6.50;6.30;;;9.40;34.10;;;;;;5096073;28;20855;-54
2023/12/23 08:20:44;;;;;;;6.70;6.50;;;9.50;34.00;;;;;;5096127;28;20278;-54
2023/12/23 08:23:09;;;;;;;5.73;5.53;;;9.50;33.90;;;;;;5096378;28;20236;-53
2023/12/23 08:25:35;;;;;;;6.60;6.40;;;9.60;33.50;;;;;;5096290;28;20459;-54
2023/12/23 08:28:01;;;;;;;6.03;5.93;;;9.60;32.20;;;;;;5083502;28;20181;-55
2023/12/23 08:30:26;;;;;;;6.47;6.27;;;9.60;31.40;;;;;;5075093;28;20175;-54
2023/12/23 08:32:52;;;;;;;5.10;5.00;;;9.60;31.70;;;;;;5085086;28;20186;-55
2023/12/23 08:35:24;;;;;;;6.07;5.87;;;9.60;31.60;;;;;;5111656;28;20186;-60
2023/12/23 08:37:51;;;;;;;6.13;5.93;;;9.70;31.20;;;;;;5086323;28;20182;-55
2023/12/23 08:40:17;;;;;;;6.77;6.57;;;9.70;31.00;;;;;;5083873;28;20517;-52
2023/12/23 08:42:44;;;;;;;6.67;6.47;;;9.70;30.80;;;;;;5086705;28;20416;-55
2023/12/23 08:45:10;;;;;;;6.60;6.40;;;9.80;30.70;;;;;;5088116;28;20179;-55
2023/12/23 08:47:35;;;;;;;5.70;5.60;;;9.80;30.60;;;;;;5075230;28;20472;-54
2023/12/23 08:50:01;;;;;;;5.50;5.40;;;9.80;30.30;;;;;;5089787;28;20213;-58
2023/12/23 08:52:27;;;;;;;5.90;5.70;;;9.80;30.50;;;;;;5084754;28;20516;-60
2023/12/23 08:54:53;;;;;;;5.50;5.40;;;9.80;29.90;;;;;;5085174;28;20284;-60
2023/12/23 08:57:18;;;;;;;5.37;5.27;;;9.90;30.00;;;;;;5086648;28;20512;-60
2023/12/23 08:59:44;;;;;;;6.63;6.33;;;9.90;29.30;;;;;;5083615;28;20300;-57
2023/12/23 09:02:10;;;;;;;5.93;5.73;;;9.90;29.80;;;;;;5079147;28;20785;-58
2023/12/23 09:04:35;;;;;;;5.53;5.43;;;9.80;29.70;;;;;;5108440;28;20177;-52
2023/12/23 09:07:02;;;;;;;5.10;5.00;;;9.80;29.60;;;;;;5077504;28;20650;-57
2023/12/23 09:09:27;;;;;;;5.37;5.27;;;9.80;29.60;;;;;;5074385;28;20560;-55
2023/12/23 09:11:53;;;;;;;5.10;5.00;;;9.70;30.00;;;;;;5075006;28;20436;-51
2023/12/23 09:14:18;;;;;;;5.40;5.30;;;9.70;30.20;;;;;;5102716;28;20182;-51
2023/12/23 09:16:44;;;;;;;6.17;5.97;;;9.70;30.50;;;;;;5103469;28;20186;-54
2023/12/23 09:19:10;;;;;;;5.13;4.93;;;9.70;30.20;;;;;;5111719;28;20808;-48
2023/12/23 09:21:35;;;;;;;5.67;5.57;;;9.80;30.20;;;;;;5112151;28;20737;-50
2023/12/23 09:24:01;;;;;;;5.87;5.67;;;9.80;29.90;;;;;;5095502;28;20177;-53
2023/12/23 09:26:27;;;;;;;5.20;5.10;;;9.80;30.10;;;;;;5112516;28;20174;-55
2023/12/23 09:28:52;;;;;;;5.30;5.20;;;9.80;29.30;;;;;;5111671;28;20178;-56
2023/12/23 09:31:18;;;;;;;5.60;5.50;;;9.80;29.80;;;;;;5112077;28;20177;-55
2023/12/23 09:33:44;;;;;;;6.17;6.00;;;9.80;29.60;;;;;;5111916;28;20236;-57
2023/12/23 09:36:10;;;;;;;5.33;5.23;;;9.80;29.10;;;;;;5112305;28;20178;-51
2023/12/23 09:38:36;;;;;;;5.13;5.03;;;9.80;29.20;;;;;;5111495;28;20564;-50
2023/12/23 09:41:02;;;;;;;5.57;5.47;;;9.80;29.10;;;;;;5111952;28;20967;-54
2023/12/23 09:43:28;;;;;;;5.20;5.10;;;9.90;29.20;;;;;;5100544;28;20586;-55
2023/12/23 09:45:56;;;;;;;5.80;5.70;;;10.00;28.20;;;;;;5095111;28;20459;-51
2023/12/23 09:48:22;;;;;;;5.20;5.00;;;9.90;28.80;;;;;;5094457;28;20178;-49
2023/12/23 09:50:49;;;;;;;4.90;4.80;;;9.90;28.50;;;;;;5087301;28;20481;-47
2023/12/23 09:53:17;;;;;;;5.30;5.20;;;9.90;29.20;;;;;;5082530;28;20408;-51
2023/12/23 09:55:43;;;;;;;6.20;6.00;;;10.00;28.40;;;;;;5079505;28;20420;-50
2023/12/23 09:58:09;;;;;;;4.80;4.60;;;10.00;28.00;;;;;;5084900;28;20475;-51
2023/12/23 10:00:35;;;;;;;5.23;5.13;;;10.00;27.80;;;;;;5074265;28;20460;-56
2023/12/23 10:03:01;;;;;;;5.20;5.10;;;9.90;28.20;;;;;;5074693;28;20800;-56
2023/12/23 10:05:27;;;;;;;5.23;5.13;;;9.90;28.40;;;;;;5074597;28;20512;-56
2023/12/23 10:07:59;;;;;;;5.00;4.90;;;10.00;27.80;;;;;;5074349;28;20186;-56
2023/12/23 10:10:25;;;;;;;4.57;4.47;;;9.90;27.90;;;;;;5073799;28;20424;-56
2023/12/23 10:12:52;;;;;;;5.23;5.13;;;9.90;28.40;;;;;;5073693;28;20420;-56
2023/12/23 10:15:18;;;;;;;5.20;5.10;;;9.90;28.40;;;;;;5081964;28;20955;-56
2023/12/23 10:17:44;;;;;;;4.63;4.53;;;9.90;28.80;;;;;;5105542;28;20837;-52
2023/12/23 10:20:13;;;;;;;5.10;5.00;;;9.80;28.70;;;;;;5114103;28;20419;-54
2023/12/23 10:22:46;;;;;;;4.63;4.53;;;9.80;28.50;;;;;;5114776;28;20180;-52
2023/12/23 10:25:13;;;;;;;4.90;4.80;;;9.80;28.50;;;;;;5088992;28;20451;-48
2023/12/23 10:27:45;;;;;;;5.70;5.40;;;9.90;28.70;;;;;;5075288;28;20763;-47
2023/12/23 10:30:12;;;;;;;5.47;5.37;;;9.90;28.40;;;;;;5073322;28;20420;-50
2023/12/23 10:32:39;;;;;;;5.10;4.90;;;10.00;27.90;;;;;;5073553;28;20446;-52
2023/12/23 10:35:13;;;;;;;5.30;5.20;;;10.00;27.70;;;;;;5092157;28;20915;-52
2023/12/23 10:37:42;;;;;;;4.93;4.83;;;10.00;27.60;;;;;;5074217;28;20439;-53
2023/12/23 10:40:26;;;;;;;5.20;5.10;;;10.00;27.80;;;;;;5083169;28;20470;-53
2023/12/23 10:42:54;;;;;;;5.57;5.47;;;9.90;28.70;;;;;;5084550;28;20415;-50
2023/12/23 10:45:21;;;;;;;5.17;4.97;;;10.00;28.30;;;;;;5085070;28;20448;-55
2023/12/23 10:47:49;;;;;;;5.30;5.20;;;10.00;28.30;;;;;;5084950;28;20476;-55
2023/12/23 10:50:16;;;;;;;5.00;4.90;;;10.00;28.60;;;;;;5093642;28;20411;-55
2023/12/23 10:52:41;;;;;;;4.80;4.70;;;10.10;28.10;;;;;;5089327;28;20424;-54
2023/12/23 10:55:09;;;;;;;5.63;5.53;;;10.20;27.40;;;;;;5083465;28;21008;-54
2023/12/23 10:57:36;;;;;;;5.63;5.53;;;10.30;27.60;;;;;;5081719;28;20178;-56
2023/12/23 11:00:05;;;;;;;6.23;6.03;;;10.20;27.60;;;;;;5090994;28;20516;-56
2023/12/23 11:02:34;;;;;;;5.00;4.90;;;10.10;27.80;;;;;;5093896;28;20462;-57
2023/12/23 11:05:05;;;;;;;5.30;5.20;;;10.10;27.80;;;;;;5093749;28;20466;-57
2023/12/23 11:07:46;;;;;;;5.30;5.10;;;10.10;27.80;;;;;;5092749;28;20423;-56
2023/12/23 11:10:14;;;;;;;5.77;5.57;;;10.20;27.40;;;;;;5092077;28;20518;-54
2023/12/23 11:12:42;;;;;;;5.63;5.43;;;10.20;27.10;;;;;;5089805;28;20407;-54
2023/12/23 11:15:08;;;;;;;6.17;5.97;;;10.10;27.10;;;;;;5083451;28;20427;-52
2023/12/23 11:17:42;;;;;;;6.87;6.47;;;10.10;27.50;;;;;;5083930;28;20423;-55
2023/12/23 11:20:28;;;;;;;5.40;5.20;;;10.10;27.70;;;;;;5090152;28;20775;-52
2023/12/23 11:22:54;;;;;;;5.43;5.33;;;10.10;27.30;;;;;;5092593;28;20427;-52
2023/12/23 11:25:39;;;;;;;5.37;5.27;;;10.20;27.50;;;;;;5090285;28;20420;-49
2023/12/23 11:28:12;;;;;;;5.83;5.63;;;10.20;27.10;;;;;;5093080;28;20171;-52
2023/12/23 11:30:48;;;;;;;5.53;5.33;;;10.30;27.30;;;;;;5092691;28;20415;-54
2023/12/23 11:33:14;;;;;;;4.73;4.63;;;10.30;27.40;;;;;;5093056;28;20425;-50
2023/12/23 11:36:00;;;;;;;5.10;5.00;;;10.20;27.00;;;;;;5093756;28;20403;-55
2023/12/23 11:38:46;;;;;;;5.50;5.40;;;10.20;27.00;;;;;;5095878;28;20415;-53
2023/12/23 11:41:12;;;;;;;5.00;4.90;;;10.10;27.00;;;;;;5096743;28;20467;-63
2023/12/23 11:43:40;;;;;;;4.97;4.87;;;10.10;27.40;;;;;;5114752;28;20456;-56
2023/12/23 11:46:06;;;;;;;5.20;5.03;;;10.10;26.70;;;;;;5096854;28;20900;-57
2023/12/23 11:48:32;;;;;;;5.33;5.23;;;10.20;26.30;;;;;;5096499;28;20419;-56
2023/12/23 11:50:59;;;;;;;4.90;4.80;;;10.20;26.50;;;;;;5095883;28;20570;-56
2023/12/23 11:53:25;;;;;;;4.93;4.83;;;10.20;26.20;;;;;;5096519;28;20593;-57
2023/12/23 11:55:50;;;;;;;5.33;5.23;;;10.20;26.40;;;;;;5109256;28;20441;-56
2023/12/23 11:58:16;;;;;;;5.50;5.30;;;10.20;26.40;;;;;;5080662;28;20189;-57
2023/12/23 12:00:42;;;;;;;5.73;5.63;;;10.20;27.10;;;;;;5085593;28;20194;-56
2023/12/23 12:03:09;;;;;;;5.93;5.83;;;10.20;26.70;;;;;;5085159;28;20419;-55
2023/12/23 12:05:35;;;;;;;5.50;5.40;;;10.20;26.40;;;;;;5086035;28;20420;-57
2023/12/23 12:08:01;;;;;;;6.20;6.10;;;10.10;26.80;;;;;;5093774;28;20493;-55
2023/12/23 12:10:27;;;;;;;5.83;5.73;;;10.20;27.80;;;;;;5095839;28;20174;-56
2023/12/23 12:12:53;;;;;;;6.33;6.03;;;10.40;27.40;;;;;;5096285;28;20415;-55
2023/12/23 12:15:18;;;;;;;5.80;5.50;;;10.30;28.20;;;;;;5095636;28;20209;-56
2023/12/23 12:17:46;;;;;;;5.10;5.00;;;10.20;27.60;;;;;;5095869;28;20235;-54
2023/12/23 12:20:11;;;;;;;5.70;5.60;;;10.20;27.00;;;;;;5095439;28;20416;-55
2023/12/23 12:22:43;;;;;;;6.20;6.00;;;10.20;26.90;;;;;;5095009;28;20424;-57
2023/12/23 12:25:08;;;;;;;5.60;5.40;;;10.10;27.00;;;;;;5096136;28;20573;-56
2023/12/23 12:27:34;;;;;;;5.90;5.80;;;10.20;27.50;;;;;;5095978;28;20412;-56
2023/12/23 12:30:00;;;;;;;5.00;4.90;;;10.20;27.30;;;;;;5113411;28;20186;-56
2023/12/23 12:32:25;;;;;;;5.40;5.20;;;10.30;27.10;;;;;;5095886;28;20178;-55
2023/12/23 12:35:01;;;;;;;4.90;4.80;;;10.30;26.30;;;;;;5095816;28;20185;-55
2023/12/23 12:37:27;;;;;;;5.43;5.33;;;10.30;26.40;;;;;;5113220;28;20177;-56
2023/12/23 12:39:53;;;;;;;5.97;5.77;;;10.40;27.50;;;;;;5115096;27;20410;-56
2023/12/23 12:42:19;;;;;;;5.30;5.20;;;10.40;26.70;;;;;;5102518;28;20829;-59
2023/12/23 12:44:44;;;;;;;5.10;4.90;;;10.50;26.50;;;;;;5085458;28;20420;-51
2023/12/23 12:47:10;;;;;;;5.20;5.00;;;10.40;26.80;;;;;;5086446;28;20818;-50
2023/12/23 12:49:45;;;;;;;5.40;5.30;;;10.50;26.80;;;;;;5081610;28;20210;-56
2023/12/23 12:52:12;;;;;;;5.43;5.33;;;10.40;26.40;;;;;;5083625;28;20180;-57